This is the latest recevied weather packets stored in our database for station/object ON7EQ-13. If no packets are shown the sender has not sent any weather packets the latest 10 day(s).
| Time | Temp. | Humidity | Pressure | Rain* | Wind** | Luminosity | Snow |
|---|---|---|---|---|---|---|---|
| 1778083450 | 16.67° C | 62% | 1008.6 hPa | - | - | - | - |
| 1778082850 | 16.67° C | 63% | 1008.6 hPa | - | - | - | - |
| 1778082250 | 17.78° C | 62% | 1008.6 hPa | - | - | - | - |
| 1778081650 | 17.22° C | 65% | 1008.5 hPa | - | - | - | - |
| 1778081050 | 17.22° C | 64% | 1008.5 hPa | - | - | - | - |
| 1778080450 | 17.78° C | 62% | 1008.5 hPa | - | - | - | - |
| 1778079849 | 18.33° C | 59% | 1008.4 hPa | - | - | - | - |
| 1778079249 | 18.89° C | 59% | 1008.3 hPa | - | - | - | - |
| 1778078650 | 19.44° C | 58% | 1008.3 hPa | - | - | - | - |
| 1778078051 | 18.89° C | 59% | 1008.3 hPa | - | - | - | - |
| 1778077449 | 17.78° C | 63% | 1008.3 hPa | - | - | - | - |
| 1778076850 | 17.78° C | 63% | 1008.3 hPa | - | - | - | - |
| 1778076250 | 17.78° C | 60% | 1008.3 hPa | - | - | - | - |
| 1778075649 | 18.33° C | 60% | 1008.3 hPa | - | - | - | - |
| 1778075050 | 18.33° C | 60% | 1008.2 hPa | - | - | - | - |
| 1778074450 | 18.33° C | 60% | 1008.2 hPa | - | - | - | - |
| 1778073850 | 19.44° C | 58% | 1008.2 hPa | - | - | - | - |
| 1778073250 | 19.44° C | 60% | 1008.1 hPa | - | - | - | - |
| 1778072649 | 19.44° C | 59% | 1008.1 hPa | - | - | - | - |
| 1778072050 | 18.89° C | 62% | 1008.1 hPa | - | - | - | - |
| 1778071449 | 17.78° C | 66% | 1008 hPa | - | - | - | - |
| 1778070850 | 17.78° C | 66% | 1008 hPa | - | - | - | - |
| 1778070250 | 17.78° C | 69% | 1008.1 hPa | - | - | - | - |
| 1778069649 | 15.56° C | 75% | 1008 hPa | - | - | - | - |
| 1778069050 | 14.44° C | 80% | 1008 hPa | - | - | - | - |
* Rain since midnight (hover to see other rain measurements)
** Current wind speed in m/s (hover to see current wind gust speed)